createdAt,value
2016-09-25T00:00:13.913Z,67.48
2016-09-25T00:01:14.116Z,67.47
2016-09-25T00:02:13.671Z,67.47
2016-09-25T00:03:11.667Z,67.50
2016-09-25T00:04:14.040Z,67.50
2016-09-25T00:05:11.584Z,67.38
2016-09-25T00:06:13.287Z,66.47
2016-09-25T00:07:14.344Z,66.26
2016-09-25T00:08:14.457Z,66.26
2016-09-25T00:09:14.203Z,67.16
2016-09-25T00:10:12.429Z,67.40
2016-09-25T00:11:12.038Z,67.47
2016-09-25T00:12:13.131Z,66.53
2016-09-25T00:13:13.035Z,66.27
2016-09-25T00:14:14.090Z,66.19
2016-09-25T00:15:13.800Z,66.11
2016-09-25T00:16:14.012Z,66.14
2016-09-25T00:17:11.729Z,66.19
2016-09-25T00:18:14.203Z,67.21
2016-09-25T00:19:13.784Z,67.38
2016-09-25T00:20:13.971Z,67.51
2016-09-25T00:21:13.425Z,67.64
2016-09-25T00:22:13.068Z,67.67
2016-09-25T00:23:13.625Z,67.71
2016-09-25T00:24:11.324Z,67.74
2016-09-25T00:25:11.715Z,67.78
2016-09-25T00:26:13.113Z,67.80
2016-09-25T00:27:14.451Z,67.77
2016-09-25T00:28:13.845Z,67.85
2016-09-25T00:29:14.412Z,67.86
2016-09-25T00:30:13.175Z,67.89
2016-09-25T00:31:13.044Z,67.84
2016-09-25T00:32:12.519Z,67.88
2016-09-25T00:33:14.447Z,67.89
2016-09-25T00:34:14.535Z,67.90
2016-09-25T00:35:14.081Z,67.88
2016-09-25T00:36:14.151Z,67.91
2016-09-25T00:37:10.579Z,67.96
2016-09-25T00:38:14.149Z,67.95
2016-09-25T00:39:14.288Z,68.00
2016-09-25T00:40:13.236Z,67.95
2016-09-25T00:41:13.775Z,68.02
2016-09-25T00:42:13.817Z,68.01
2016-09-25T00:43:14.713Z,68.00
2016-09-25T00:44:14.359Z,68.05
2016-09-25T00:45:13.796Z,68.07
2016-09-25T00:46:13.912Z,68.07
2016-09-25T00:47:12.741Z,68.05
2016-09-25T00:48:14.212Z,68.05
2016-09-25T00:49:14.067Z,68.08
2016-09-25T00:50:16.754Z,68.11
2016-09-25T00:51:15.493Z,68.07
2016-09-25T00:52:13.044Z,68.12
2016-09-25T00:53:13.248Z,68.10
2016-09-25T00:54:14.393Z,68.13
2016-09-25T00:55:14.480Z,68.13
2016-09-25T00:56:13.934Z,68.12
2016-09-25T00:57:14.032Z,68.16
2016-09-25T00:58:13.414Z,68.17
2016-09-25T00:59:13.458Z,68.10
2016-09-25T01:00:14.253Z,68.17
2016-09-25T01:01:17.327Z,68.20
2016-09-25T01:02:15.217Z,68.20
2016-09-25T01:03:10.678Z,68.26
2016-09-25T01:04:14.473Z,67.16
2016-09-25T01:05:14.202Z,66.94
2016-09-25T01:06:14.005Z,66.81
2016-09-25T01:07:15.053Z,66.89
2016-09-25T01:08:15.908Z,67.78
2016-09-25T01:09:13.979Z,67.99
2016-09-25T01:10:13.707Z,68.09
2016-09-25T01:11:14.304Z,68.17
2016-09-25T01:12:13.966Z,68.21
2016-09-25T01:13:12.849Z,68.24
2016-09-25T01:14:14.587Z,68.31
2016-09-25T01:15:15.455Z,68.30
2016-09-25T01:16:15.462Z,68.26
2016-09-25T01:17:14.217Z,67.31
2016-09-25T01:18:14.235Z,67.09
2016-09-25T01:19:13.534Z,67.97
2016-09-25T01:20:15.891Z,68.15
2016-09-25T01:21:14.179Z,68.28
2016-09-25T01:22:13.996Z,68.32
2016-09-25T01:23:14.006Z,68.32
2016-09-25T01:24:16.013Z,68.36
2016-09-25T01:25:13.598Z,68.40
2016-09-25T01:26:13.851Z,68.36
2016-09-25T01:27:14.440Z,68.40
2016-09-25T01:28:13.447Z,68.45
2016-09-25T01:29:13.952Z,68.40
2016-09-25T01:30:14.412Z,68.47
2016-09-25T01:31:12.413Z,68.60
2016-09-25T01:32:14.417Z,68.51
2016-09-25T01:33:12.869Z,68.49
2016-09-25T01:34:14.921Z,68.55
2016-09-25T01:35:13.543Z,68.60
2016-09-25T01:36:13.315Z,68.57
2016-09-25T01:37:12.833Z,68.56
2016-09-25T01:38:14.710Z,68.63
2016-09-25T01:39:14.751Z,68.63
2016-09-25T01:40:14.971Z,68.64
2016-09-25T01:41:12.794Z,68.60
2016-09-25T01:42:14.292Z,68.60
2016-09-25T01:43:14.231Z,68.61
2016-09-25T01:44:15.450Z,68.59
2016-09-25T01:45:12.887Z,68.66
2016-09-25T01:46:13.852Z,68.66
2016-09-25T01:47:14.318Z,68.67
2016-09-25T01:48:14.373Z,68.61
2016-09-25T01:49:11.134Z,68.69
2016-09-25T01:50:13.709Z,68.70
2016-09-25T01:51:16.680Z,68.72
2016-09-25T01:52:14.967Z,68.81
2016-09-25T01:53:15.750Z,68.75
2016-09-25T01:54:12.533Z,68.66
2016-09-25T01:55:13.515Z,68.71
2016-09-25T01:56:14.063Z,68.77
2016-09-25T01:57:14.212Z,68.78
2016-09-25T01:58:13.625Z,68.73
2016-09-25T01:59:14.086Z,68.76
2016-09-25T02:00:14.108Z,68.76
2016-09-25T02:01:14.174Z,68.79
2016-09-25T02:02:13.403Z,68.80
2016-09-25T02:03:12.871Z,68.83
2016-09-25T02:04:15.497Z,68.87
2016-09-25T02:05:15.315Z,68.79
2016-09-25T02:06:14.438Z,68.85
2016-09-25T02:07:14.887Z,68.81
2016-09-25T02:08:15.449Z,68.86
2016-09-25T02:09:13.286Z,68.90
2016-09-25T02:10:14.113Z,68.89
2016-09-25T02:11:10.340Z,68.95
2016-09-25T02:12:14.131Z,68.86
2016-09-25T02:13:13.582Z,68.85
2016-09-25T02:14:14.575Z,68.90
2016-09-25T02:15:14.640Z,69.00
2016-09-25T02:16:15.595Z,68.90
2016-09-25T02:17:14.916Z,68.86
2016-09-25T02:18:14.005Z,68.89
2016-09-25T02:19:12.623Z,68.96
2016-09-25T02:20:14.195Z,68.96
2016-09-25T02:21:12.863Z,68.93
2016-09-25T02:22:14.622Z,68.96
2016-09-25T02:23:14.429Z,69.02
2016-09-25T02:24:13.903Z,68.94
2016-09-25T02:25:14.255Z,68.88
2016-09-25T02:26:14.064Z,68.90
2016-09-25T02:27:14.030Z,68.98
2016-09-25T02:28:13.852Z,69.00
2016-09-25T02:29:12.232Z,68.98
2016-09-25T02:30:14.199Z,67.92
2016-09-25T02:31:14.130Z,67.69
2016-09-25T02:32:14.141Z,67.53
2016-09-25T02:33:13.035Z,67.50
2016-09-25T02:34:13.807Z,67.50
2016-09-25T02:35:14.369Z,67.59
2016-09-25T02:36:14.316Z,68.55
2016-09-25T02:37:16.840Z,68.73
2016-09-25T02:38:13.685Z,68.87
2016-09-25T02:39:14.079Z,68.92
2016-09-25T02:40:14.859Z,68.95
2016-09-25T02:41:14.388Z,68.93
2016-09-25T02:42:14.633Z,68.92
2016-09-25T02:43:14.154Z,68.98
2016-09-25T02:44:13.367Z,69.02
2016-09-25T02:45:13.978Z,69.01
2016-09-25T02:46:14.402Z,68.90
2016-09-25T02:47:15.489Z,68.94
2016-09-25T02:48:15.114Z,68.98
2016-09-25T02:49:10.799Z,69.04
2016-09-25T02:50:19.620Z,69.02
2016-09-25T02:51:12.165Z,68.96
2016-09-25T02:52:13.934Z,68.93
2016-09-25T02:53:10.095Z,69.06
2016-09-25T02:54:19.101Z,68.20
2016-09-25T02:55:12.553Z,68.84
2016-09-25T02:56:14.707Z,68.97
2016-09-25T02:57:13.661Z,69.00
2016-09-25T02:58:13.951Z,69.02
2016-09-25T02:59:12.548Z,69.08
2016-09-25T03:00:13.948Z,69.11
2016-09-25T03:01:13.710Z,69.12
2016-09-25T03:02:14.251Z,69.13
2016-09-25T03:03:14.333Z,69.10
2016-09-25T03:04:14.042Z,69.11
2016-09-25T03:05:18.559Z,69.14
2016-09-25T03:06:14.236Z,69.13
2016-09-25T03:07:13.180Z,69.13
2016-09-25T03:08:13.480Z,69.16
2016-09-25T03:09:13.327Z,69.18
2016-09-25T03:10:13.506Z,69.15
2016-09-25T03:11:14.789Z,69.12
2016-09-25T03:12:10.853Z,69.11
2016-09-25T03:13:14.353Z,69.10
2016-09-25T03:14:14.903Z,69.13
2016-09-25T03:15:13.570Z,69.10
2016-09-25T03:16:14.037Z,69.20
2016-09-25T03:17:13.830Z,69.09
2016-09-25T03:18:13.557Z,69.20
2016-09-25T03:19:14.183Z,69.13
2016-09-25T03:20:14.826Z,69.02
2016-09-25T03:21:14.450Z,69.17
2016-09-25T03:22:12.956Z,69.13
2016-09-25T03:23:13.993Z,69.03
2016-09-25T03:24:14.186Z,69.10
2016-09-25T03:25:12.923Z,69.12
2016-09-25T03:26:15.399Z,69.24
2016-09-25T03:27:14.321Z,69.16
2016-09-25T03:28:13.639Z,69.18
2016-09-25T03:29:14.591Z,69.16
2016-09-25T03:30:13.546Z,69.11
2016-09-25T03:31:13.578Z,69.19
2016-09-25T03:32:14.236Z,69.21
2016-09-25T03:33:14.095Z,69.19
2016-09-25T03:34:12.333Z,69.15
2016-09-25T03:35:14.124Z,69.17
2016-09-25T03:36:13.607Z,69.21
2016-09-25T03:37:14.096Z,69.19
2016-09-25T03:38:14.848Z,69.18
2016-09-25T03:39:13.745Z,69.22
2016-09-25T03:40:11.216Z,69.18
2016-09-25T03:41:13.959Z,69.15
2016-09-25T03:42:12.320Z,69.16
2016-09-25T03:43:13.724Z,69.13
2016-09-25T03:44:13.276Z,69.19
2016-09-25T03:45:14.768Z,69.11
2016-09-25T03:46:14.218Z,69.27
2016-09-25T03:47:13.187Z,69.21
2016-09-25T03:48:13.556Z,69.20
2016-09-25T03:49:14.237Z,69.19
2016-09-25T03:50:13.878Z,69.21
2016-09-25T03:51:14.101Z,69.21
2016-09-25T03:52:13.303Z,69.20
2016-09-25T03:53:14.341Z,69.20
2016-09-25T03:54:11.146Z,69.20
2016-09-25T03:55:14.186Z,69.28
2016-09-25T03:56:12.852Z,69.25
2016-09-25T03:57:14.617Z,69.25
2016-09-25T03:58:14.685Z,69.25
2016-09-25T03:59:14.355Z,69.26
2016-09-25T04:00:13.666Z,69.23
2016-09-25T04:01:12.973Z,69.27
2016-09-25T04:02:13.431Z,69.27
2016-09-25T04:03:14.990Z,69.18
2016-09-25T04:04:12.273Z,69.24
2016-09-25T04:05:14.426Z,69.27
2016-09-25T04:06:15.376Z,69.19
2016-09-25T04:07:14.235Z,69.27
2016-09-25T04:08:12.915Z,69.27
2016-09-25T04:09:13.621Z,69.20
2016-09-25T04:10:13.781Z,69.27
2016-09-25T04:11:14.116Z,69.20
2016-09-25T04:12:13.293Z,69.16
2016-09-25T04:13:13.453Z,69.09
2016-09-25T04:14:14.102Z,69.16
2016-09-25T04:15:13.446Z,69.18
2016-09-25T04:16:13.267Z,69.21
2016-09-25T04:17:12.985Z,69.15
2016-09-25T04:18:11.976Z,69.24
2016-09-25T04:19:13.567Z,69.17
2016-09-25T04:20:14.092Z,69.17
2016-09-25T04:21:13.195Z,69.18
2016-09-25T04:22:18.712Z,69.25
2016-09-25T04:23:12.796Z,69.28
2016-09-25T04:24:13.743Z,68.09
2016-09-25T04:25:17.787Z,68.96
2016-09-25T04:26:17.600Z,69.00
2016-09-25T04:27:17.665Z,69.03
2016-09-25T04:28:14.466Z,69.21
2016-09-25T04:29:15.164Z,69.16
2016-09-25T04:30:13.276Z,69.18
2016-09-25T04:31:13.882Z,69.08
2016-09-25T04:32:14.199Z,69.16
2016-09-25T04:33:14.174Z,69.24
2016-09-25T04:34:13.665Z,69.23
2016-09-25T04:35:13.592Z,69.19
2016-09-25T04:36:13.084Z,69.21
2016-09-25T04:37:13.615Z,69.22
2016-09-25T04:38:13.845Z,69.16
2016-09-25T04:39:14.328Z,69.27
2016-09-25T04:40:12.752Z,69.28
2016-09-25T04:41:14.713Z,69.26
2016-09-25T04:42:14.089Z,69.35
2016-09-25T04:43:13.725Z,69.35
2016-09-25T04:44:11.590Z,69.36
2016-09-25T04:45:13.094Z,69.20
2016-09-25T04:46:14.235Z,69.29
2016-09-25T04:47:13.809Z,69.24
2016-09-25T04:48:14.466Z,69.37
2016-09-25T04:49:18.820Z,69.27
2016-09-25T04:50:14.673Z,69.27
2016-09-25T04:51:14.450Z,69.28
2016-09-25T04:52:19.151Z,69.25
2016-09-25T04:53:13.863Z,69.33
2016-09-25T04:54:13.480Z,69.24
2016-09-25T04:55:14.115Z,69.31
2016-09-25T04:56:14.778Z,69.33
2016-09-25T04:57:13.848Z,69.30
2016-09-25T04:58:14.225Z,69.31
2016-09-25T04:59:12.691Z,69.34
2016-09-25T05:00:13.126Z,69.33
2016-09-25T05:01:13.851Z,69.41
2016-09-25T05:02:14.452Z,69.42
2016-09-25T05:03:13.615Z,69.38
2016-09-25T05:04:13.855Z,69.47
2016-09-25T05:05:19.123Z,69.54
2016-09-25T05:06:14.058Z,69.46
2016-09-25T05:07:14.261Z,69.50
2016-09-25T05:08:12.138Z,69.57
2016-09-25T05:09:13.904Z,69.42
2016-09-25T05:10:13.290Z,69.60
2016-09-25T05:11:13.163Z,69.57
2016-09-25T05:12:13.575Z,69.59
2016-09-25T05:13:13.654Z,69.63
2016-09-25T05:14:13.473Z,69.57
2016-09-25T05:15:13.360Z,69.39
2016-09-25T05:16:16.149Z,68.47
2016-09-25T05:17:13.790Z,68.32
2016-09-25T05:18:14.194Z,68.11
2016-09-25T05:19:14.314Z,69.25
2016-09-25T05:20:13.042Z,69.33
2016-09-25T05:21:13.704Z,69.28
2016-09-25T05:22:14.583Z,68.56
2016-09-25T05:23:14.114Z,69.25
2016-09-25T05:24:13.983Z,69.36
2016-09-25T05:25:14.232Z,69.38
2016-09-25T05:26:14.336Z,69.08
2016-09-25T05:27:13.849Z,69.30
2016-09-25T05:28:14.751Z,69.26
2016-09-25T05:29:14.025Z,69.25
2016-09-25T05:30:15.911Z,69.01
2016-09-25T05:31:13.927Z,68.82
2016-09-25T05:32:11.549Z,68.84
2016-09-25T05:33:14.354Z,68.82
2016-09-25T05:34:14.171Z,68.89
2016-09-25T05:35:13.405Z,68.91
2016-09-25T05:36:12.911Z,68.84
2016-09-25T05:37:14.990Z,68.97
2016-09-25T05:38:12.692Z,68.85
2016-09-25T05:39:13.984Z,68.81
2016-09-25T05:40:13.500Z,68.88
2016-09-25T05:41:14.073Z,68.68
2016-09-25T05:42:13.075Z,68.80
2016-09-25T05:43:13.769Z,68.77
2016-09-25T05:44:13.101Z,68.85
2016-09-25T05:45:13.179Z,68.78
2016-09-25T05:46:14.882Z,68.77
2016-09-25T05:47:13.208Z,68.66
2016-09-25T05:48:14.823Z,69.07
2016-09-25T05:49:14.274Z,68.81
2016-09-25T05:50:13.616Z,68.97
2016-09-25T05:51:14.417Z,68.59
2016-09-25T05:52:18.526Z,68.70
2016-09-25T05:53:14.415Z,68.88
2016-09-25T05:54:13.439Z,68.81
2016-09-25T05:55:14.672Z,68.84
2016-09-25T05:56:13.924Z,68.63
2016-09-25T05:57:12.404Z,68.75
2016-09-25T05:58:14.339Z,68.91
2016-09-25T05:59:14.758Z,68.79
2016-09-25T06:00:14.115Z,68.81
2016-09-25T06:01:13.771Z,68.78
2016-09-25T06:02:15.311Z,68.77
2016-09-25T06:03:13.128Z,68.66
2016-09-25T06:04:18.500Z,67.93
2016-09-25T06:05:14.089Z,68.20
2016-09-25T06:06:13.574Z,68.42
2016-09-25T06:07:13.464Z,68.24
2016-09-25T06:08:13.864Z,68.09
2016-09-25T06:09:14.749Z,67.89
2016-09-25T06:10:19.086Z,68.13
2016-09-25T06:11:13.056Z,68.09
2016-09-25T06:12:13.480Z,68.25
2016-09-25T06:13:14.291Z,68.23
2016-09-25T06:14:13.656Z,68.19
2016-09-25T06:15:13.781Z,68.28
2016-09-25T06:16:14.089Z,68.07
2016-09-25T06:17:14.242Z,68.09
2016-09-25T06:18:13.901Z,67.13
2016-09-25T06:19:13.841Z,67.35
2016-09-25T06:20:14.115Z,67.89
2016-09-25T06:21:13.153Z,67.97
2016-09-25T06:22:13.026Z,68.09
2016-09-25T06:23:13.106Z,68.07
2016-09-25T06:24:13.387Z,68.08
2016-09-25T06:25:13.685Z,68.08
2016-09-25T06:26:12.999Z,68.13
2016-09-25T06:27:14.093Z,68.08
2016-09-25T06:28:13.586Z,68.14
2016-09-25T06:29:15.005Z,68.10
2016-09-25T06:30:13.547Z,68.12
2016-09-25T06:31:13.830Z,68.06
2016-09-25T06:32:14.620Z,68.06
2016-09-25T06:33:14.087Z,68.03
2016-09-25T06:34:12.451Z,68.00
2016-09-25T06:35:14.823Z,67.98
2016-09-25T06:36:13.592Z,68.03
2016-09-25T06:37:13.977Z,67.57
2016-09-25T06:38:13.776Z,67.50
2016-09-25T06:39:14.923Z,67.85
2016-09-25T06:40:14.941Z,67.71
2016-09-25T06:41:13.815Z,67.88
2016-09-25T06:42:14.826Z,67.96
2016-09-25T06:43:13.660Z,67.93
2016-09-25T06:44:13.507Z,67.90
2016-09-25T06:45:13.996Z,67.92
2016-09-25T06:46:12.641Z,67.78
2016-09-25T06:47:13.498Z,67.88
2016-09-25T06:48:13.785Z,67.86
2016-09-25T06:49:13.496Z,68.04
2016-09-25T06:50:13.376Z,67.72
2016-09-25T06:51:12.035Z,68.06
2016-09-25T06:52:14.077Z,67.78
2016-09-25T06:53:14.784Z,67.31
2016-09-25T06:54:14.456Z,67.66
2016-09-25T06:55:12.900Z,67.80
2016-09-25T06:56:13.240Z,67.94
2016-09-25T06:57:13.103Z,67.98
2016-09-25T06:58:14.330Z,68.04
2016-09-25T06:59:14.490Z,68.11
2016-09-25T07:00:13.677Z,67.94
2016-09-25T07:01:19.440Z,68.09
2016-09-25T07:02:13.323Z,68.07
2016-09-25T07:03:13.147Z,68.09
2016-09-25T07:04:12.987Z,68.05
2016-09-25T07:05:10.959Z,68.13
2016-09-25T07:06:12.484Z,67.05
2016-09-25T07:07:13.846Z,66.89
2016-09-25T07:08:14.161Z,66.77
2016-09-25T07:09:13.294Z,66.62
2016-09-25T07:10:11.691Z,66.65
2016-09-25T07:11:15.043Z,66.58
2016-09-25T07:12:14.108Z,66.51
2016-09-25T07:13:19.097Z,66.67
2016-09-25T07:14:14.103Z,66.63
2016-09-25T07:15:13.535Z,66.97
2016-09-25T07:16:14.331Z,66.42
2016-09-25T07:17:14.164Z,66.59
2016-09-25T07:18:13.396Z,66.13
2016-09-25T07:19:14.037Z,66.35
2016-09-25T07:20:12.559Z,66.47
2016-09-25T07:21:13.341Z,66.33
2016-09-25T07:22:12.859Z,66.56
2016-09-25T07:23:14.278Z,67.64
2016-09-25T07:24:13.571Z,67.88
2016-09-25T07:25:15.092Z,68.10
2016-09-25T07:26:12.826Z,68.30
2016-09-25T07:27:13.475Z,68.31
2016-09-25T07:28:13.678Z,68.29
2016-09-25T07:29:13.489Z,68.26
2016-09-25T07:30:13.635Z,68.28
2016-09-25T07:31:14.355Z,68.39
2016-09-25T07:32:14.766Z,68.45
2016-09-25T07:33:17.564Z,68.33
2016-09-25T07:34:14.497Z,68.40
2016-09-25T07:35:14.206Z,68.54
2016-09-25T07:36:13.608Z,68.52
2016-09-25T07:37:13.185Z,68.66
2016-09-25T07:38:14.750Z,68.48
2016-09-25T07:39:13.575Z,68.68
2016-09-25T07:40:13.643Z,68.57
2016-09-25T07:41:14.149Z,68.65
2016-09-25T07:42:14.792Z,68.49
2016-09-25T07:43:14.011Z,68.45
2016-09-25T07:44:12.518Z,68.48
2016-09-25T07:45:14.219Z,68.34
2016-09-25T07:46:13.296Z,68.45
2016-09-25T07:47:13.878Z,68.39
2016-09-25T07:48:14.736Z,68.29
2016-09-25T07:49:14.339Z,68.10
2016-09-25T07:50:13.576Z,67.21
2016-09-25T07:51:14.426Z,67.01
2016-09-25T07:52:15.365Z,66.85
2016-09-25T07:53:15.186Z,66.83
2016-09-25T07:54:12.537Z,67.67
2016-09-25T07:55:13.201Z,68.04
2016-09-25T07:56:12.704Z,67.83
2016-09-25T07:57:13.973Z,67.04
2016-09-25T07:58:10.244Z,66.77
2016-09-25T07:59:14.406Z,66.74
2016-09-25T08:00:14.102Z,66.62
2016-09-25T08:01:13.967Z,66.46
2016-09-25T08:02:12.829Z,66.41
2016-09-25T08:03:14.377Z,66.75
2016-09-25T08:04:14.941Z,67.50
2016-09-25T08:05:13.209Z,67.73
2016-09-25T08:06:13.044Z,67.77
2016-09-25T08:07:14.158Z,67.93
2016-09-25T08:08:12.608Z,67.93
2016-09-25T08:09:13.608Z,68.02
2016-09-25T08:10:14.288Z,67.81
2016-09-25T08:11:13.254Z,67.00
2016-09-25T08:12:12.871Z,66.76
2016-09-25T08:13:14.287Z,66.96
2016-09-25T08:14:13.006Z,67.98
2016-09-25T08:15:12.872Z,68.09
2016-09-25T08:16:13.934Z,68.21
2016-09-25T08:17:13.432Z,68.09
2016-09-25T08:18:13.909Z,68.17
2016-09-25T08:19:15.095Z,68.47
2016-09-25T08:20:13.188Z,68.49
2016-09-25T08:21:13.898Z,68.57
2016-09-25T08:22:12.655Z,68.49
2016-09-25T08:23:13.057Z,68.40
2016-09-25T08:24:13.793Z,68.29
2016-09-25T08:25:14.663Z,68.57
2016-09-25T08:26:12.281Z,68.45
2016-09-25T08:27:14.566Z,67.70
2016-09-25T08:28:13.366Z,68.03
2016-09-25T08:29:12.996Z,68.22
2016-09-25T08:30:13.604Z,68.10
2016-09-25T08:31:13.099Z,68.17
2016-09-25T08:32:12.868Z,68.13
2016-09-25T08:33:15.029Z,68.21
2016-09-25T08:34:13.188Z,68.18
2016-09-25T08:35:14.329Z,68.51
2016-09-25T08:36:12.603Z,68.30
2016-09-25T08:37:14.195Z,68.22
2016-09-25T08:38:13.907Z,68.41
2016-09-25T08:39:13.342Z,68.45
2016-09-25T08:40:13.073Z,68.29
2016-09-25T08:41:13.141Z,68.53
2016-09-25T08:42:13.030Z,68.40
2016-09-25T08:43:12.592Z,68.41
2016-09-25T08:44:15.722Z,68.38
2016-09-25T08:45:14.643Z,68.44
2016-09-25T08:46:14.945Z,68.49
2016-09-25T08:47:12.645Z,68.48
2016-09-25T08:48:15.257Z,68.52
2016-09-25T08:49:13.415Z,68.47
2016-09-25T08:50:13.278Z,68.35
2016-09-25T08:51:14.173Z,68.42
2016-09-25T08:52:09.481Z,68.39
2016-09-25T08:53:11.062Z,68.36
2016-09-25T08:54:13.351Z,68.24
2016-09-25T08:55:12.788Z,68.33
2016-09-25T08:56:13.486Z,68.30
2016-09-25T08:57:15.866Z,68.25
2016-09-25T08:58:14.054Z,68.32
2016-09-25T08:59:11.033Z,68.30
2016-09-25T09:00:14.828Z,68.30
2016-09-25T09:01:12.258Z,68.32
2016-09-25T09:02:14.308Z,67.42
2016-09-25T09:03:10.544Z,67.99
2016-09-25T09:04:13.634Z,68.09
2016-09-25T09:05:14.058Z,68.13
2016-09-25T09:06:13.978Z,68.16
2016-09-25T09:07:12.947Z,68.19
2016-09-25T09:08:13.048Z,68.15
2016-09-25T09:09:12.332Z,68.16
2016-09-25T09:10:13.147Z,68.21
2016-09-25T09:11:13.999Z,68.20
2016-09-25T09:12:12.721Z,68.18
2016-09-25T09:13:14.121Z,68.21
2016-09-25T09:14:12.783Z,68.16
2016-09-25T09:15:14.366Z,68.20
2016-09-25T09:16:14.234Z,68.16
2016-09-25T09:17:11.277Z,68.19
2016-09-25T09:18:13.285Z,67.06
2016-09-25T09:19:13.740Z,67.22
2016-09-25T09:20:13.298Z,67.83
2016-09-25T09:21:14.049Z,67.97
2016-09-25T09:22:14.717Z,68.11
2016-09-25T09:23:14.277Z,68.04
2016-09-25T09:24:13.093Z,68.09
2016-09-25T09:25:12.648Z,68.11
2016-09-25T09:26:14.329Z,68.18
2016-09-25T09:27:15.157Z,68.20
2016-09-25T09:28:13.330Z,68.19
2016-09-25T09:29:13.102Z,68.23
2016-09-25T09:30:13.440Z,68.25
2016-09-25T09:31:13.764Z,68.26
2016-09-25T09:32:13.286Z,68.27
2016-09-25T09:33:13.095Z,68.25
2016-09-25T09:34:13.051Z,68.27
2016-09-25T09:35:12.119Z,68.28
2016-09-25T09:36:13.192Z,68.26
2016-09-25T09:37:13.257Z,68.24
2016-09-25T09:38:12.869Z,68.29
2016-09-25T09:39:13.830Z,68.25
2016-09-25T09:40:13.547Z,68.29
2016-09-25T09:41:18.781Z,68.27
2016-09-25T09:42:14.937Z,68.29
2016-09-25T09:43:14.613Z,68.27
2016-09-25T09:44:13.917Z,68.24
2016-09-25T09:45:14.368Z,68.24
2016-09-25T09:46:13.906Z,68.18
2016-09-25T09:47:14.555Z,68.26
2016-09-25T09:48:13.370Z,68.21
2016-09-25T09:49:14.020Z,68.18
2016-09-25T09:50:14.565Z,68.14
2016-09-25T09:51:14.554Z,68.14
2016-09-25T09:52:14.490Z,68.16
2016-09-25T09:53:09.666Z,68.10
2016-09-25T09:54:13.165Z,68.10
2016-09-25T09:55:14.176Z,68.10
2016-09-25T09:56:13.711Z,68.14
2016-09-25T09:57:14.349Z,68.12
2016-09-25T09:58:13.385Z,68.10
2016-09-25T09:59:12.811Z,68.09
2016-09-25T10:00:15.381Z,68.04
2016-09-25T10:01:13.075Z,68.09
2016-09-25T10:02:12.937Z,68.05
2016-09-25T10:03:13.040Z,67.91
2016-09-25T10:04:13.072Z,67.31
2016-09-25T10:05:14.463Z,67.80
2016-09-25T10:06:14.129Z,67.91
2016-09-25T10:07:13.447Z,67.94
2016-09-25T10:08:13.801Z,67.94
2016-09-25T10:09:14.445Z,67.99
2016-09-25T10:10:11.288Z,67.97
2016-09-25T10:11:14.156Z,68.00
2016-09-25T10:12:13.189Z,67.94
2016-09-25T10:13:13.381Z,67.94
2016-09-25T10:14:13.460Z,67.79
2016-09-25T10:15:12.977Z,66.98
2016-09-25T10:16:13.087Z,67.72
2016-09-25T10:17:10.805Z,67.83
2016-09-25T10:18:13.680Z,67.87
2016-09-25T10:19:14.778Z,67.90
2016-09-25T10:20:13.183Z,67.93
2016-09-25T10:21:13.171Z,67.90
2016-09-25T10:22:12.793Z,67.90
2016-09-25T10:23:14.099Z,67.86
2016-09-25T10:24:13.631Z,67.90
2016-09-25T10:25:11.994Z,67.89
2016-09-25T10:26:13.257Z,67.90
2016-09-25T10:27:13.159Z,67.88
2016-09-25T10:28:13.430Z,67.88
2016-09-25T10:29:13.750Z,67.86
2016-09-25T10:30:13.959Z,67.84
2016-09-25T10:31:12.814Z,67.85
2016-09-25T10:32:14.727Z,67.84
2016-09-25T10:33:13.834Z,67.84
2016-09-25T10:34:14.451Z,67.84
2016-09-25T10:35:14.893Z,67.83
2016-09-25T10:36:14.105Z,67.84
2016-09-25T10:37:09.727Z,67.84
2016-09-25T10:38:13.287Z,67.85
2016-09-25T10:39:12.523Z,67.80
2016-09-25T10:40:13.643Z,67.80
2016-09-25T10:41:13.275Z,67.82
2016-09-25T10:42:12.462Z,67.82
2016-09-25T10:43:14.129Z,67.83
2016-09-25T10:44:12.882Z,67.80
2016-09-25T10:45:13.824Z,67.77
2016-09-25T10:46:13.883Z,67.77
2016-09-25T10:47:13.905Z,67.79
2016-09-25T10:48:13.894Z,67.76
2016-09-25T10:49:13.588Z,67.79
2016-09-25T10:50:13.709Z,67.78
2016-09-25T10:51:15.229Z,67.76
2016-09-25T10:52:12.517Z,67.76
2016-09-25T10:53:13.273Z,67.78
2016-09-25T10:54:13.092Z,67.78
2016-09-25T10:55:17.180Z,67.75
2016-09-25T10:56:14.129Z,67.77
2016-09-25T10:57:12.448Z,67.78
2016-09-25T10:58:13.597Z,67.76
2016-09-25T10:59:14.134Z,67.77
2016-09-25T11:00:14.100Z,67.73
2016-09-25T11:01:13.276Z,67.71
2016-09-25T11:02:12.546Z,67.71
2016-09-25T11:03:14.024Z,67.72
2016-09-25T11:04:14.100Z,67.77
2016-09-25T11:05:14.089Z,67.76
2016-09-25T11:06:13.278Z,67.74
2016-09-25T11:07:13.666Z,67.77
2016-09-25T11:08:14.293Z,67.75
2016-09-25T11:09:13.799Z,67.70
2016-09-25T11:10:13.668Z,67.70
2016-09-25T11:11:15.800Z,67.72
2016-09-25T11:12:15.853Z,67.70
2016-09-25T11:13:13.831Z,67.72
2016-09-25T11:14:14.498Z,67.70
2016-09-25T11:15:14.139Z,67.70
2016-09-25T11:16:18.537Z,67.68
2016-09-25T11:17:14.790Z,67.71
2016-09-25T11:18:14.715Z,67.70
2016-09-25T11:19:15.558Z,67.70
2016-09-25T11:20:13.889Z,67.73
2016-09-25T11:21:14.518Z,67.70
2016-09-25T11:22:11.479Z,67.73
2016-09-25T11:23:13.157Z,66.63
2016-09-25T11:24:12.955Z,66.36
2016-09-25T11:25:14.468Z,66.24
2016-09-25T11:26:13.961Z,66.18
2016-09-25T11:27:13.132Z,66.14
2016-09-25T11:28:14.287Z,66.08
2016-09-25T11:29:13.550Z,66.35
2016-09-25T11:30:14.200Z,67.11
2016-09-25T11:31:14.790Z,67.35
2016-09-25T11:32:14.254Z,67.42
2016-09-25T11:33:14.379Z,67.53
2016-09-25T11:34:13.284Z,67.56
2016-09-25T11:35:13.537Z,67.55
2016-09-25T11:36:14.749Z,67.60
2016-09-25T11:37:14.286Z,67.55
2016-09-25T11:38:10.583Z,67.29
2016-09-25T11:39:14.159Z,63.09
2016-09-25T11:40:13.440Z,61.19
2016-09-25T11:41:12.840Z,60.29
2016-09-25T11:42:13.829Z,60.65
2016-09-25T11:43:14.139Z,58.82
2016-09-25T11:44:11.129Z,59.66
2016-09-25T11:45:12.490Z,58.74
2016-09-25T11:46:13.667Z,58.15
2016-09-25T11:47:14.292Z,58.36
2016-09-25T11:48:12.521Z,58.24
2016-09-25T11:49:13.568Z,58.46
2016-09-25T11:50:13.954Z,58.58
2016-09-25T11:51:14.633Z,58.11
2016-09-25T11:52:14.459Z,58.82
2016-09-25T11:53:14.501Z,58.12
2016-09-25T11:54:13.722Z,58.20
2016-09-25T11:55:15.222Z,58.45
2016-09-25T11:56:14.179Z,58.01
2016-09-25T11:57:13.280Z,58.71
2016-09-25T11:58:12.815Z,57.64
2016-09-25T11:59:13.909Z,58.39
2016-09-25T12:00:12.259Z,58.81
2016-09-25T12:01:13.304Z,58.63
2016-09-25T12:02:15.038Z,58.59
2016-09-25T12:03:13.673Z,58.28
2016-09-25T12:04:15.183Z,57.92
2016-09-25T12:05:12.950Z,57.96
2016-09-25T12:06:13.514Z,57.57
2016-09-25T12:07:13.198Z,58.37
2016-09-25T12:08:14.928Z,58.96
2016-09-25T12:09:14.435Z,58.09
2016-09-25T12:10:15.392Z,57.90
2016-09-25T12:11:12.942Z,58.37
2016-09-25T12:12:13.767Z,58.17
2016-09-25T12:13:13.422Z,58.65
2016-09-25T12:14:13.925Z,57.90
2016-09-25T12:15:16.284Z,57.94
2016-09-25T12:16:12.634Z,57.61
2016-09-25T12:17:14.096Z,57.08
2016-09-25T12:18:13.023Z,56.86
2016-09-25T12:19:13.506Z,56.71
2016-09-25T12:20:13.808Z,57.22
2016-09-25T12:21:14.183Z,57.21
2016-09-25T12:22:13.869Z,55.75
2016-09-25T12:23:12.138Z,57.01
2016-09-25T12:24:13.541Z,57.49
2016-09-25T12:25:14.185Z,57.80
2016-09-25T12:26:13.262Z,57.67
2016-09-25T12:27:10.412Z,57.94
2016-09-25T12:28:11.505Z,57.81
2016-09-25T12:29:13.189Z,58.35
2016-09-25T12:30:13.277Z,57.24
2016-09-25T12:31:12.939Z,57.68
2016-09-25T12:32:12.428Z,56.52
2016-09-25T12:33:13.225Z,57.04
2016-09-25T12:34:12.615Z,58.18
2016-09-25T12:35:14.080Z,57.53
2016-09-25T12:36:12.791Z,58.08
2016-09-25T12:37:15.101Z,58.52
2016-09-25T12:38:12.624Z,58.28
2016-09-25T12:39:13.001Z,57.62
2016-09-25T12:40:12.677Z,56.84
2016-09-25T12:41:13.993Z,56.47
2016-09-25T12:42:13.023Z,56.30
2016-09-25T12:43:13.377Z,56.19
2016-09-25T12:44:12.610Z,56.24
2016-09-25T12:45:11.410Z,55.77
2016-09-25T12:46:12.852Z,55.61
2016-09-25T12:47:13.888Z,55.87
2016-09-25T12:48:12.785Z,56.09
2016-09-25T12:49:14.061Z,56.43
2016-09-25T12:50:13.304Z,55.99
2016-09-25T12:51:15.010Z,56.24
2016-09-25T12:52:12.531Z,57.45